createdAt,value
2022-10-22T00:00:33.647Z,95.01
2022-10-22T00:02:36.756Z,94.63
2022-10-22T00:04:39.488Z,94.78
2022-10-22T00:06:42.697Z,95.31
2022-10-22T00:08:45.374Z,94.76
2022-10-22T00:10:49.494Z,94.44
2022-10-22T00:12:52.167Z,95.26
2022-10-22T00:14:54.840Z,95.05
2022-10-22T00:17:00.879Z,94.81
2022-10-22T00:19:03.934Z,95.51
2022-10-22T00:21:07.648Z,95.08
2022-10-22T00:23:10.274Z,94.97
2022-10-22T00:25:12.954Z,95.52
2022-10-22T00:27:16.952Z,95.35
2022-10-22T00:29:20.067Z,95.51
2022-10-22T00:31:22.723Z,94.72
2022-10-22T00:33:25.600Z,95.41
2022-10-22T00:35:28.343Z,95.32
2022-10-22T00:37:31.126Z,95.13
2022-10-22T00:39:33.850Z,95.45
2022-10-22T00:41:36.463Z,95.06
2022-10-22T00:43:56.602Z,94.61
2022-10-22T00:45:59.264Z,94.98
2022-10-22T00:48:06.300Z,94.95
2022-10-22T00:50:12.608Z,95.54
2022-10-22T00:52:15.597Z,94.87
2022-10-22T00:54:18.235Z,94.70
2022-10-22T00:56:21.329Z,94.87
2022-10-22T00:58:26.787Z,95.00
2022-10-22T01:00:30.858Z,95.10
2022-10-22T01:02:33.836Z,95.56
2022-10-22T01:04:36.428Z,95.62
2022-10-22T01:06:39.057Z,95.54
2022-10-22T01:08:47.941Z,95.72
2022-10-22T01:10:57.962Z,95.14
2022-10-22T01:13:13.825Z,94.98
2022-10-22T01:15:26.128Z,94.85
2022-10-22T01:17:35.178Z,95.60
2022-10-22T01:19:51.269Z,95.65
2022-10-22T01:21:59.646Z,94.97
2022-10-22T01:24:29.399Z,95.38
2022-10-22T01:26:44.850Z,95.78
2022-10-22T01:28:58.237Z,95.51
2022-10-22T01:31:00.781Z,95.08
2022-10-22T01:33:07.613Z,95.47
2022-10-22T01:35:13.339Z,95.44
2022-10-22T01:37:19.769Z,95.47
2022-10-22T01:39:24.117Z,95.17
2022-10-22T01:45:45.378Z,95.43
2022-10-22T01:47:57.314Z,95.84
2022-10-22T01:50:14.592Z,95.40
2022-10-22T01:52:29.026Z,95.35
2022-10-22T01:54:38.910Z,96.00
2022-10-22T01:56:57.506Z,96.10
2022-10-22T01:59:08.448Z,95.93
2022-10-22T02:01:22.277Z,95.85
2022-10-22T02:03:31.188Z,95.81
2022-10-22T02:05:38.428Z,95.36
2022-10-22T02:07:45.162Z,95.61
2022-10-22T02:09:48.886Z,95.98
2022-10-22T02:11:52.801Z,95.77
2022-10-22T02:13:59.430Z,95.88
2022-10-22T02:16:04.248Z,95.79
2022-10-22T02:18:10.656Z,95.51
2022-10-22T02:20:19.168Z,95.42
2022-10-22T02:22:22.011Z,95.61
2022-10-22T02:24:25.408Z,95.43
2022-10-22T02:26:32.622Z,95.28
2022-10-22T02:28:40.360Z,95.49
2022-10-22T02:30:47.492Z,96.02
2022-10-22T02:32:55.868Z,95.93
2022-10-22T02:35:01.567Z,96.00
2022-10-22T02:37:04.836Z,96.08
2022-10-22T02:39:10.858Z,95.76
2022-10-22T02:41:13.695Z,96.08
2022-10-22T02:43:16.312Z,95.37
2022-10-22T02:45:20.227Z,96.16
2022-10-22T02:47:22.881Z,95.89
2022-10-22T02:49:25.492Z,95.81
2022-10-22T02:51:29.441Z,95.79
2022-10-22T02:53:32.085Z,96.20
2022-10-22T02:55:34.709Z,96.25
2022-10-22T02:57:37.697Z,95.72
2022-10-22T02:59:40.569Z,95.56
2022-10-22T03:01:43.202Z,96.12
2022-10-22T03:03:45.836Z,96.26
2022-10-22T03:05:48.502Z,96.04
2022-10-22T03:07:52.476Z,95.73
2022-10-22T03:09:55.058Z,96.74
2022-10-22T03:11:57.685Z,96.32
2022-10-22T03:14:00.302Z,96.30
2022-10-22T03:16:03.086Z,96.45
2022-10-22T03:18:05.820Z,95.86
2022-10-22T03:20:09.445Z,96.32
2022-10-22T03:22:16.640Z,96.28
2022-10-22T03:24:25.157Z,96.43
2022-10-22T03:26:27.839Z,96.88
2022-10-22T03:28:30.708Z,96.40
2022-10-22T03:30:33.322Z,96.03
2022-10-22T03:32:35.934Z,95.99
2022-10-22T03:34:38.546Z,96.05
2022-10-22T03:36:42.115Z,96.63
2022-10-22T03:38:44.984Z,96.78
2022-10-22T03:40:49.381Z,96.51
2022-10-22T03:42:52.000Z,96.83
2022-10-22T03:44:54.739Z,96.60
2022-10-22T03:47:00.076Z,96.87
2022-10-22T03:49:05.277Z,96.32
2022-10-22T03:51:08.514Z,96.85
2022-10-22T03:53:11.418Z,96.28
2022-10-22T03:55:14.046Z,97.21
2022-10-22T03:57:18.155Z,96.74
2022-10-22T03:59:20.836Z,97.02
2022-10-22T04:01:23.654Z,96.47
2022-10-22T04:03:26.327Z,96.43
2022-10-22T04:05:28.985Z,96.92
2022-10-22T04:07:31.660Z,97.28
2022-10-22T04:09:35.024Z,97.06
2022-10-22T04:11:37.642Z,96.78
2022-10-22T04:13:42.089Z,97.56
2022-10-22T04:17:52.168Z,97.07
2022-10-22T04:19:54.763Z,97.08
2022-10-22T04:21:59.068Z,97.23
2022-10-22T04:24:01.742Z,97.20
2022-10-22T04:26:06.796Z,97.63
2022-10-22T04:28:10.267Z,96.95
2022-10-22T04:30:15.234Z,97.68
2022-10-22T04:32:17.828Z,97.03
2022-10-22T04:34:20.419Z,97.73
2022-10-22T04:36:23.265Z,97.68
2022-10-22T04:38:25.870Z,97.67
2022-10-22T04:40:28.496Z,97.82
2022-10-22T04:42:31.148Z,97.52
2022-10-22T04:44:34.010Z,97.30
2022-10-22T04:46:38.014Z,97.81
2022-10-22T04:48:42.581Z,97.93
2022-10-22T04:50:45.184Z,97.78
2022-10-22T04:52:47.866Z,97.74
2022-10-22T04:54:50.543Z,97.48
2022-10-22T04:56:53.134Z,98.05
2022-10-22T04:58:57.723Z,97.81
2022-10-22T05:01:00.410Z,97.45
2022-10-22T05:03:04.504Z,97.83
2022-10-22T05:05:07.422Z,97.66
2022-10-22T05:07:10.053Z,97.80
2022-10-22T05:09:15.265Z,97.32
2022-10-22T05:11:20.371Z,97.80
2022-10-22T05:13:23.015Z,98.04
2022-10-22T05:15:25.598Z,98.05
2022-10-22T05:17:28.253Z,97.94
2022-10-22T05:19:33.259Z,97.74
2022-10-22T05:21:36.318Z,97.95
2022-10-22T05:23:39.722Z,98.22
2022-10-22T05:25:42.330Z,97.92
2022-10-22T05:27:44.998Z,97.76
2022-10-22T05:29:47.618Z,98.06
2022-10-22T05:31:50.597Z,97.95
2022-10-22T05:33:53.237Z,98.37
2022-10-22T05:35:57.410Z,98.21
2022-10-22T05:38:00.044Z,97.72
2022-10-22T05:40:18.896Z,97.99
2022-10-22T05:42:25.286Z,97.65
2022-10-22T05:44:27.942Z,98.18
2022-10-22T05:46:33.965Z,97.58
2022-10-22T05:48:36.805Z,98.15
2022-10-22T05:50:40.291Z,97.60
2022-10-22T05:52:44.233Z,97.83
2022-10-22T05:54:46.900Z,98.07
2022-10-22T05:56:49.838Z,97.57
2022-10-22T05:58:53.008Z,97.58
2022-10-22T06:00:55.741Z,97.68
2022-10-22T06:02:58.373Z,98.11
2022-10-22T06:05:01.100Z,98.08
2022-10-22T06:07:04.053Z,97.63
2022-10-22T06:09:14.461Z,97.88
2022-10-22T06:11:18.403Z,97.63
2022-10-22T06:13:20.994Z,98.13
2022-10-22T06:15:23.630Z,98.11
2022-10-22T06:17:26.232Z,98.13
2022-10-22T06:19:31.094Z,97.84
2022-10-22T06:21:33.883Z,97.84
2022-10-22T06:23:37.368Z,97.75
2022-10-22T06:25:41.544Z,97.78
2022-10-22T06:27:44.206Z,98.00
2022-10-22T06:29:46.798Z,98.16
2022-10-22T06:31:49.550Z,98.18
2022-10-22T06:33:52.151Z,97.79
2022-10-22T06:35:55.122Z,98.17
2022-10-22T06:37:57.696Z,98.45
2022-10-22T06:40:00.311Z,98.12
2022-10-22T06:42:04.340Z,98.27
2022-10-22T06:44:06.968Z,98.18
2022-10-22T06:46:13.706Z,98.10
2022-10-22T06:48:18.747Z,98.11
2022-10-22T06:50:21.389Z,98.20
2022-10-22T06:52:23.963Z,98.22
2022-10-22T06:54:26.584Z,97.65
2022-10-22T06:56:30.185Z,97.71
2022-10-22T06:58:34.210Z,98.61
2022-10-22T07:00:36.744Z,97.78
2022-10-22T07:02:39.782Z,97.98
2022-10-22T07:04:43.558Z,98.19
2022-10-22T07:06:46.183Z,97.91
2022-10-22T07:08:48.928Z,97.80
2022-10-22T07:10:51.613Z,98.04
2022-10-22T07:12:54.232Z,97.93
2022-10-22T07:14:58.201Z,98.07
2022-10-22T07:17:00.816Z,97.77
2022-10-22T07:19:04.876Z,97.66
2022-10-22T07:21:08.801Z,97.37
2022-10-22T07:23:11.407Z,96.78
2022-10-22T07:25:14.073Z,95.68
2022-10-22T07:27:16.703Z,94.30
2022-10-22T07:29:19.297Z,93.78
2022-10-22T07:31:23.729Z,93.19
2022-10-22T07:33:26.857Z,91.81
2022-10-22T07:35:29.497Z,91.45
2022-10-22T07:37:32.082Z,90.69
2022-10-22T07:39:34.707Z,89.92
2022-10-22T07:41:37.321Z,89.58
2022-10-22T07:43:39.971Z,89.87
2022-10-22T07:45:42.601Z,90.24
2022-10-22T07:47:48.231Z,89.81
2022-10-22T07:49:50.849Z,90.61
2022-10-22T07:51:53.455Z,90.80
2022-10-22T07:53:56.127Z,90.99
2022-10-22T07:55:58.857Z,90.55
2022-10-22T07:58:14.545Z,90.08
2022-10-22T08:00:20.478Z,90.47
2022-10-22T08:02:26.163Z,89.96
2022-10-22T08:04:30.155Z,89.55
2022-10-22T08:06:32.804Z,89.12
2022-10-22T08:08:35.618Z,88.22
2022-10-22T08:10:38.337Z,87.26
2022-10-22T08:12:42.395Z,87.89
2022-10-22T08:14:45.140Z,86.86
2022-10-22T08:16:47.830Z,85.00
2022-10-22T08:18:51.770Z,84.48
2022-10-22T08:20:55.847Z,84.85
2022-10-22T08:22:59.335Z,84.52
2022-10-22T08:25:01.967Z,81.97
2022-10-22T08:27:04.703Z,82.42
2022-10-22T08:29:07.960Z,81.27
2022-10-22T08:31:11.721Z,81.31
2022-10-22T08:33:14.356Z,82.03
2022-10-22T08:35:17.785Z,82.31
2022-10-22T08:37:21.869Z,82.82
2022-10-22T08:39:24.773Z,80.83
2022-10-22T08:41:27.519Z,80.11
2022-10-22T08:43:46.299Z,80.08
2022-10-22T08:45:59.061Z,79.81
2022-10-22T08:48:21.041Z,78.61
2022-10-22T08:50:30.972Z,78.77
2022-10-22T08:52:36.970Z,79.45
2022-10-22T08:54:50.270Z,79.82
2022-10-22T08:57:05.909Z,76.92
2022-10-22T08:59:16.307Z,77.63
2022-10-22T09:01:24.009Z,78.85
2022-10-22T09:03:35.307Z,77.88
2022-10-22T09:05:47.811Z,77.51
2022-10-22T09:07:53.058Z,77.60
2022-10-22T09:09:59.328Z,76.85
2022-10-22T09:12:03.446Z,76.80
2022-10-22T09:14:07.148Z,76.17
2022-10-22T09:16:16.410Z,77.00
2022-10-22T09:18:34.130Z,77.75
2022-10-22T09:20:44.268Z,78.52
2022-10-22T09:23:00.981Z,78.61
2022-10-22T09:25:17.214Z,79.61
2022-10-22T09:27:23.594Z,77.26
2022-10-22T09:29:33.137Z,78.47
2022-10-22T09:31:36.028Z,78.58
2022-10-22T09:33:38.716Z,79.85
2022-10-22T09:35:47.560Z,80.23
2022-10-22T09:37:52.298Z,79.94
2022-10-22T09:39:58.867Z,79.55
2022-10-22T09:42:02.025Z,79.70
2022-10-22T09:44:08.607Z,79.26
2022-10-22T09:46:17.840Z,79.93
2022-10-22T09:48:26.365Z,79.98
2022-10-22T09:50:31.326Z,78.71
2022-10-22T09:52:35.493Z,78.68
2022-10-22T09:54:43.379Z,78.27
2022-10-22T09:56:53.218Z,77.63
2022-10-22T09:58:57.712Z,76.69
2022-10-22T10:01:02.116Z,77.11
2022-10-22T10:03:05.085Z,76.92
2022-10-22T10:05:09.674Z,77.61
2022-10-22T10:07:20.526Z,75.90
2022-10-22T10:09:25.666Z,75.93
2022-10-22T10:11:33.590Z,75.81
2022-10-22T10:13:47.926Z,76.26
2022-10-22T10:15:57.237Z,74.90
2022-10-22T10:18:10.865Z,75.12
2022-10-22T10:20:27.852Z,75.41
2022-10-22T10:22:46.766Z,74.86
2022-10-22T10:25:05.036Z,76.74
2022-10-22T10:27:16.030Z,77.75
2022-10-22T10:29:33.474Z,76.90
2022-10-22T10:31:46.177Z,77.13
2022-10-22T10:33:56.830Z,75.92
2022-10-22T10:36:05.112Z,76.39
2022-10-22T10:38:20.857Z,76.93
2022-10-22T10:40:29.536Z,77.51
2022-10-22T10:42:37.688Z,78.15
2022-10-22T10:44:52.325Z,78.12
2022-10-22T10:47:04.537Z,76.97
2022-10-22T10:49:11.371Z,77.94
2022-10-22T10:51:27.315Z,76.86
2022-10-22T10:53:41.180Z,77.17
2022-10-22T10:55:55.671Z,76.55
2022-10-22T10:58:11.173Z,77.18
2022-10-22T11:00:19.678Z,77.04
2022-10-22T11:02:44.931Z,75.70
2022-10-22T11:05:04.449Z,77.29
2022-10-22T11:07:23.370Z,76.57
2022-10-22T11:09:40.877Z,76.61
2022-10-22T11:11:48.366Z,77.29
2022-10-22T11:13:56.762Z,77.28
2022-10-22T11:16:07.490Z,75.99
2022-10-22T11:18:16.868Z,75.64
2022-10-22T11:20:23.428Z,73.78
2022-10-22T11:22:30.506Z,72.78
2022-10-22T11:24:40.221Z,73.28
2022-10-22T11:26:47.782Z,72.42
2022-10-22T11:28:54.631Z,72.35
2022-10-22T11:31:03.854Z,72.48
2022-10-22T11:33:11.052Z,72.45
2022-10-22T11:35:16.952Z,72.52
2022-10-22T11:37:20.074Z,72.80
2022-10-22T11:39:34.221Z,71.42
2022-10-22T11:41:37.310Z,70.46
2022-10-22T11:43:58.400Z,70.91
2022-10-22T11:46:27.372Z,71.33
2022-10-22T11:48:37.236Z,71.41
2022-10-22T11:50:50.606Z,70.42
2022-10-22T11:53:02.893Z,69.83
2022-10-22T11:55:31.426Z,70.40
2022-10-22T11:57:39.482Z,70.42
2022-10-22T11:59:49.570Z,70.46
2022-10-22T12:01:57.377Z,68.77
2022-10-22T12:04:21.976Z,69.79
2022-10-22T12:06:25.969Z,68.53
2022-10-22T12:08:28.740Z,70.16
2022-10-22T12:10:49.560Z,69.17
2022-10-22T12:12:58.463Z,68.56
2022-10-22T12:15:02.769Z,69.64
2022-10-22T12:17:12.262Z,69.74
2022-10-22T12:19:17.914Z,69.97
2022-10-22T12:21:20.716Z,70.41
2022-10-22T12:23:30.347Z,69.68
2022-10-22T12:25:35.646Z,69.13
2022-10-22T12:27:40.821Z,68.99
2022-10-22T12:29:43.928Z,68.46
2022-10-22T12:31:48.442Z,68.56
2022-10-22T12:33:58.784Z,66.70
2022-10-22T12:36:04.119Z,67.57
2022-10-22T12:38:15.897Z,68.17
2022-10-22T12:40:21.584Z,67.09
2022-10-22T12:42:24.205Z,68.12
2022-10-22T12:44:26.969Z,66.87
2022-10-22T12:46:33.096Z,68.99
2022-10-22T12:48:41.272Z,69.05
2022-10-22T12:50:49.301Z,70.24
2022-10-22T12:52:55.250Z,70.59
2022-10-22T12:54:58.049Z,70.06
2022-10-22T12:57:01.391Z,69.78
2022-10-22T12:59:08.833Z,70.49
2022-10-22T13:01:12.870Z,70.40
2022-10-22T13:03:27.643Z,71.07
2022-10-22T13:05:38.960Z,70.45
2022-10-22T13:07:47.701Z,70.34
2022-10-22T13:09:59.333Z,69.88
2022-10-22T13:12:05.905Z,69.22
2022-10-22T13:14:21.341Z,69.34
2022-10-22T13:16:27.836Z,69.87
2022-10-22T13:18:34.657Z,69.26
2022-10-22T13:20:38.422Z,69.76
2022-10-22T13:22:53.447Z,68.83
2022-10-22T13:24:58.933Z,69.03
2022-10-22T13:27:01.672Z,67.74
2022-10-22T13:29:11.868Z,67.24
2022-10-22T13:31:18.756Z,67.58
2022-10-22T13:33:23.797Z,67.80
2022-10-22T13:35:29.183Z,67.12
2022-10-22T13:37:35.586Z,69.17
2022-10-22T13:39:39.548Z,69.32
2022-10-22T13:41:42.302Z,69.23
2022-10-22T13:43:45.003Z,69.26
2022-10-22T13:45:49.926Z,70.02
2022-10-22T13:47:54.648Z,68.89
2022-10-22T13:50:01.209Z,69.16
2022-10-22T13:52:05.266Z,68.64
2022-10-22T13:54:14.671Z,69.97
2022-10-22T13:56:20.604Z,69.04
2022-10-22T13:58:25.161Z,69.82
2022-10-22T14:00:28.046Z,69.67
2022-10-22T14:02:31.254Z,70.10
2022-10-22T14:04:37.065Z,68.84
2022-10-22T14:06:39.741Z,70.43
2022-10-22T14:08:43.437Z,70.46
2022-10-22T14:10:46.328Z,69.75
2022-10-22T14:12:53.310Z,69.59
2022-10-22T14:17:00.117Z,70.62
2022-10-22T14:19:03.923Z,70.11
2022-10-22T14:21:07.706Z,70.22
2022-10-22T14:25:22.310Z,68.94
2022-10-22T14:27:25.532Z,69.95
2022-10-22T14:29:30.254Z,70.44
2022-10-22T14:31:33.335Z,71.30
2022-10-22T14:33:36.082Z,70.33
2022-10-22T14:35:38.756Z,70.01
2022-10-22T14:37:41.973Z,69.37
2022-10-22T14:39:46.626Z,69.70
2022-10-22T14:41:49.365Z,70.34
2022-10-22T14:43:55.298Z,69.35
2022-10-22T14:45:59.411Z,68.49
2022-10-22T14:48:02.274Z,69.00
2022-10-22T14:50:06.616Z,69.60
2022-10-22T14:52:11.716Z,69.54
2022-10-22T14:54:18.346Z,69.97
2022-10-22T14:56:22.196Z,70.74
2022-10-22T14:58:25.011Z,70.32
2022-10-22T15:00:28.238Z,70.41
2022-10-22T15:02:32.426Z,69.20
2022-10-22T15:04:35.059Z,70.31
2022-10-22T15:06:38.200Z,70.70
2022-10-22T15:08:40.954Z,72.12
2022-10-22T15:10:43.728Z,72.73
2022-10-22T15:12:46.651Z,73.01
2022-10-22T15:14:49.570Z,71.08
2022-10-22T15:16:52.252Z,73.14
2022-10-22T15:18:57.097Z,73.13
2022-10-22T15:21:01.255Z,75.67
2022-10-22T15:23:03.934Z,74.39
2022-10-22T15:25:09.014Z,74.99
2022-10-22T15:27:13.647Z,73.49
2022-10-22T15:29:16.314Z,72.06
2022-10-22T15:31:43.514Z,73.06
2022-10-22T15:33:46.128Z,74.40
2022-10-22T15:35:50.465Z,76.73
2022-10-22T15:37:53.117Z,76.47
2022-10-22T15:39:55.898Z,76.29
2022-10-22T15:41:59.894Z,76.81
2022-10-22T15:44:02.729Z,77.23
2022-10-22T15:46:14.458Z,76.32
2022-10-22T15:48:17.564Z,75.02
2022-10-22T15:50:20.375Z,76.30
2022-10-22T15:52:25.037Z,77.74
2022-10-22T15:54:31.478Z,77.84
2022-10-22T15:56:34.780Z,78.04
2022-10-22T15:58:37.540Z,75.73
2022-10-22T16:00:40.700Z,75.16
2022-10-22T16:02:43.983Z,75.96
2022-10-22T16:04:47.030Z,75.39
2022-10-22T16:06:52.567Z,77.21
2022-10-22T16:08:59.165Z,77.40
2022-10-22T16:11:02.778Z,78.81
2022-10-22T16:13:05.923Z,79.82
2022-10-22T16:15:09.965Z,81.22
2022-10-22T16:17:13.130Z,82.37
2022-10-22T16:19:18.158Z,82.09
2022-10-22T16:21:22.631Z,83.07
2022-10-22T16:23:25.711Z,83.58
2022-10-22T16:25:30.120Z,84.22
2022-10-22T16:27:33.108Z,84.55
2022-10-22T16:29:38.257Z,84.83
2022-10-22T16:31:43.801Z,85.14
2022-10-22T16:33:50.049Z,85.23
2022-10-22T16:35:53.462Z,85.59
2022-10-22T16:37:57.012Z,84.65
2022-10-22T16:40:03.147Z,85.51
2022-10-22T16:42:10.317Z,85.86
2022-10-22T16:44:13.300Z,86.17
2022-10-22T16:46:16.647Z,86.30
2022-10-22T16:48:19.909Z,85.91
2022-10-22T16:50:23.088Z,86.43
2022-10-22T16:52:26.251Z,86.19
2022-10-22T16:54:29.421Z,87.03
2022-10-22T16:56:32.045Z,87.02
2022-10-22T16:58:36.152Z,86.92
2022-10-22T17:00:38.838Z,86.97
2022-10-22T17:02:41.696Z,87.25
2022-10-22T17:04:44.513Z,87.85
2022-10-22T17:06:47.185Z,87.52
2022-10-22T17:08:50.360Z,87.90
2022-10-22T17:10:53.077Z,87.04
2022-10-22T17:12:55.849Z,87.73
2022-10-22T17:15:00.087Z,87.65
2022-10-22T17:17:02.788Z,88.15
2022-10-22T17:19:05.717Z,87.93
2022-10-22T17:21:10.227Z,87.99
2022-10-22T17:23:13.055Z,87.66
2022-10-22T17:25:18.109Z,88.13
2022-10-22T17:27:20.895Z,88.04
2022-10-22T17:29:25.311Z,87.36
2022-10-22T17:31:32.425Z,87.67
2022-10-22T17:33:36.656Z,88.48
2022-10-22T17:35:41.745Z,88.03
2022-10-22T17:37:44.730Z,88.86
2022-10-22T17:39:47.857Z,88.04
2022-10-22T17:41:50.979Z,88.10
2022-10-22T17:43:54.227Z,88.29
2022-10-22T17:46:04.999Z,88.60
2022-10-22T17:48:09.110Z,89.02
2022-10-22T17:53:30.764Z,89.47
2022-10-22T17:55:34.794Z,90.11
2022-10-22T17:57:37.466Z,89.24
2022-10-22T18:03:48.584Z,89.46
2022-10-22T18:05:51.253Z,89.32
2022-10-22T18:07:55.718Z,89.99
2022-10-22T18:09:58.438Z,89.54
2022-10-22T18:12:01.447Z,89.27
2022-10-22T18:14:05.071Z,89.49
2022-10-22T18:16:08.102Z,89.43
2022-10-22T18:18:10.734Z,89.13
2022-10-22T18:20:14.969Z,90.13
2022-10-22T18:22:17.567Z,89.27
2022-10-22T18:24:20.267Z,90.79
2022-10-22T18:26:26.017Z,90.51
2022-10-22T18:28:29.666Z,90.67
2022-10-22T18:30:32.293Z,90.40
2022-10-22T18:32:35.501Z,89.47
2022-10-22T18:34:38.198Z,89.42
2022-10-22T18:36:42.544Z,89.21
2022-10-22T18:38:45.128Z,90.39
2022-10-22T18:40:47.779Z,90.18
2022-10-22T18:42:50.746Z,90.52
2022-10-22T18:44:53.399Z,90.61
2022-10-22T18:46:56.091Z,89.60
2022-10-22T18:48:59.690Z,89.75
2022-10-22T18:51:04.813Z,89.36
2022-10-22T18:53:09.133Z,89.24
2022-10-22T18:55:12.557Z,90.89
2022-10-22T18:57:15.216Z,89.65
2022-10-22T18:59:20.363Z,90.71
2022-10-22T19:01:24.803Z,89.55
2022-10-22T19:03:27.482Z,90.67
2022-10-22T19:05:30.168Z,90.88
2022-10-22T19:07:32.802Z,89.99
2022-10-22T19:09:36.840Z,91.02
2022-10-22T19:11:39.436Z,90.89
2022-10-22T19:13:43.075Z,90.92
2022-10-22T19:15:45.794Z,90.19
2022-10-22T19:17:48.445Z,90.72
2022-10-22T19:19:51.037Z,90.38
2022-10-22T19:21:56.361Z,89.66
2022-10-22T19:24:00.497Z,90.47
2022-10-22T19:26:06.888Z,90.46
2022-10-22T19:28:09.488Z,90.58
2022-10-22T19:30:12.973Z,89.47
2022-10-22T19:32:16.497Z,89.39
2022-10-22T19:34:19.814Z,90.71
2022-10-22T19:36:25.189Z,90.23
2022-10-22T19:38:29.644Z,90.18
2022-10-22T19:40:32.340Z,89.76
2022-10-22T19:42:37.488Z,90.50
2022-10-22T19:44:40.190Z,90.32
2022-10-22T19:46:42.946Z,90.46
2022-10-22T19:50:59.957Z,90.11
2022-10-22T19:53:03.038Z,89.82
2022-10-22T19:55:06.762Z,90.14
2022-10-22T19:57:09.735Z,91.00
2022-10-22T19:59:15.225Z,90.89
2022-10-22T20:01:19.787Z,90.95
2022-10-22T20:03:23.142Z,90.57
2022-10-22T20:05:25.780Z,90.86
2022-10-22T20:07:29.035Z,90.21
2022-10-22T20:09:31.793Z,90.94
2022-10-22T20:11:34.436Z,90.17
2022-10-22T20:13:37.458Z,91.01
2022-10-22T20:15:41.551Z,90.31
2022-10-22T20:17:45.387Z,91.00
2022-10-22T20:19:48.148Z,91.05
2022-10-22T20:21:50.988Z,91.34
2022-10-22T20:23:56.555Z,90.75
2022-10-22T20:25:59.214Z,91.38
2022-10-22T20:28:01.856Z,91.00
2022-10-22T20:30:05.876Z,90.30
2022-10-22T20:32:10.022Z,90.73
2022-10-22T20:34:12.645Z,90.94
2022-10-22T20:36:21.215Z,91.21
2022-10-22T20:38:23.940Z,91.33
2022-10-22T20:40:27.125Z,90.97
2022-10-22T20:42:29.729Z,91.27
2022-10-22T20:44:32.345Z,91.67
2022-10-22T20:46:35.357Z,91.36
2022-10-22T20:48:39.558Z,91.33
2022-10-22T20:50:42.269Z,91.50
2022-10-22T20:52:44.864Z,91.39
2022-10-22T20:54:48.423Z,91.22
2022-10-22T20:56:51.370Z,91.07
2022-10-22T20:59:04.075Z,91.69
2022-10-22T21:01:12.004Z,90.94
2022-10-22T21:03:15.661Z,91.11
2022-10-22T21:05:19.703Z,91.14
2022-10-22T21:07:22.322Z,91.20
2022-10-22T21:09:25.814Z,91.17
2022-10-22T21:11:28.487Z,90.97
2022-10-22T21:13:33.466Z,91.17
2022-10-22T21:15:36.093Z,91.59
2022-10-22T21:17:40.154Z,91.61
2022-10-22T21:19:42.802Z,92.07
2022-10-22T21:21:46.819Z,91.41
2022-10-22T21:23:51.135Z,91.61
2022-10-22T21:25:55.119Z,91.30
2022-10-22T21:27:57.787Z,90.98
2022-10-22T21:30:00.388Z,91.78
2022-10-22T21:32:03.021Z,92.06
2022-10-22T21:34:05.642Z,91.83
2022-10-22T21:36:09.850Z,92.18
2022-10-22T21:38:13.817Z,91.32
2022-10-22T21:40:16.770Z,91.59
2022-10-22T21:42:19.409Z,91.20
2022-10-22T21:44:22.094Z,91.20
2022-10-22T21:46:26.822Z,91.13
2022-10-22T21:48:29.463Z,91.84
2022-10-22T21:50:32.296Z,91.80
2022-10-22T21:52:34.920Z,91.79
2022-10-22T21:54:39.741Z,91.67
2022-10-22T21:56:42.461Z,91.68
2022-10-22T21:58:45.218Z,91.34
2022-10-22T22:00:54.803Z,91.81
2022-10-22T22:02:57.521Z,92.44
2022-10-22T22:05:00.194Z,92.54
2022-10-22T22:07:02.919Z,92.58
2022-10-22T22:09:06.346Z,91.69
2022-10-22T22:11:17.694Z,91.62
2022-10-22T22:13:24.782Z,92.01
2022-10-22T22:15:28.419Z,92.28
2022-10-22T22:17:31.052Z,92.46
2022-10-22T22:19:33.684Z,92.16
2022-10-22T22:21:39.079Z,92.64
2022-10-22T22:23:43.809Z,92.10
2022-10-22T22:25:46.558Z,92.06
2022-10-22T22:27:50.566Z,92.39
2022-10-22T22:29:55.090Z,91.88
2022-10-22T22:31:57.735Z,91.83
2022-10-22T22:34:01.835Z,91.94
2022-10-22T22:36:04.688Z,93.60
2022-10-22T22:38:07.912Z,93.19
2022-10-22T22:40:12.477Z,92.29
2022-10-22T22:42:15.107Z,92.62
2022-10-22T22:44:19.306Z,93.19
2022-10-22T22:46:21.953Z,93.28
2022-10-22T22:48:24.603Z,92.30
2022-10-22T22:50:27.199Z,93.05
2022-10-22T22:52:29.821Z,92.34
2022-10-22T22:54:32.462Z,92.37
2022-10-22T22:56:35.350Z,92.50
2022-10-22T22:58:40.383Z,93.08
2022-10-22T23:00:44.376Z,92.56
2022-10-22T23:02:46.976Z,92.21
2022-10-22T23:04:49.611Z,92.58
2022-10-22T23:06:52.942Z,93.02
2022-10-22T23:08:56.422Z,92.88
2022-10-22T23:11:03.273Z,92.34
2022-10-22T23:13:05.884Z,92.10
2022-10-22T23:15:09.061Z,92.60
2022-10-22T23:17:13.077Z,91.95
2022-10-22T23:19:17.538Z,92.46
2022-10-22T23:21:22.181Z,92.54
2022-10-22T23:23:24.838Z,92.94
2022-10-22T23:25:27.412Z,93.22
2022-10-22T23:27:30.026Z,92.92
2022-10-22T23:29:35.698Z,92.79
2022-10-22T23:31:39.000Z,92.18
2022-10-22T23:33:43.373Z,93.00
2022-10-22T23:35:46.058Z,92.48
2022-10-22T23:37:48.713Z,92.73
2022-10-22T23:39:51.431Z,92.40
2022-10-22T23:41:54.480Z,92.58
2022-10-22T23:43:57.183Z,91.94
2022-10-22T23:45:59.799Z,91.68
2022-10-22T23:48:02.433Z,92.03
2022-10-22T23:50:07.312Z,91.70
2022-10-22T23:52:09.929Z,92.01
2022-10-22T23:54:15.125Z,92.13
2022-10-22T23:56:19.102Z,92.46
2022-10-22T23:58:21.753Z,92.81
